createdAt,value
2017-05-13T00:00:35.894Z,14.60
2017-05-13T00:03:05.681Z,14.40
2017-05-13T00:05:34.743Z,14.40
2017-05-13T00:08:03.886Z,14.30
2017-05-13T00:10:33.700Z,14.30
2017-05-13T00:13:02.795Z,14.40
2017-05-13T00:15:32.617Z,14.40
2017-05-13T00:18:02.398Z,14.40
2017-05-13T00:20:31.497Z,14.40
2017-05-13T00:23:00.625Z,14.30
2017-05-13T00:25:30.537Z,14.30
2017-05-13T00:28:00.330Z,14.30
2017-05-13T00:30:29.403Z,14.20
2017-05-13T00:32:58.541Z,14.10
2017-05-13T00:35:28.466Z,14.10
2017-05-13T00:37:58.242Z,14.00
2017-05-13T00:40:27.459Z,14.00
2017-05-13T00:42:56.495Z,14.00
2017-05-13T00:45:25.754Z,14.00
2017-05-13T00:47:54.853Z,14.00
2017-05-13T00:50:24.682Z,14.00
2017-05-13T00:52:53.777Z,14.10
2017-05-13T00:55:23.673Z,14.10
2017-05-13T00:57:53.471Z,14.10
2017-05-13T01:00:22.588Z,14.10
2017-05-13T01:02:52.381Z,14.10
2017-05-13T01:05:21.489Z,14.10
2017-05-13T01:07:51.319Z,14.20
2017-05-13T01:10:20.401Z,14.20
2017-05-13T01:12:50.214Z,14.20
2017-05-13T01:15:20.019Z,14.10
2017-05-13T01:17:49.060Z,14.20
2017-05-13T01:20:18.126Z,14.00
2017-05-13T01:22:47.916Z,14.00
2017-05-13T01:25:17.120Z,14.00
2017-05-13T01:27:46.229Z,14.00
2017-05-13T01:30:16.037Z,13.90
2017-05-13T01:32:45.836Z,13.90
2017-05-13T01:35:14.906Z,13.80
2017-05-13T01:37:44.046Z,13.70
2017-05-13T01:40:13.875Z,13.70
2017-05-13T01:42:42.908Z,13.80
2017-05-13T01:45:12.125Z,13.80
2017-05-13T01:47:41.167Z,13.80
2017-05-13T01:50:10.239Z,13.90
2017-05-13T01:52:40.054Z,13.90
2017-05-13T01:55:09.966Z,13.80
2017-05-13T01:57:39.777Z,13.80
2017-05-13T02:00:09.795Z,13.80
2017-05-13T02:02:38.898Z,13.90
2017-05-13T02:05:08.811Z,13.90
2017-05-13T02:07:38.633Z,13.90
2017-05-13T02:10:08.529Z,13.90
2017-05-13T02:12:38.350Z,13.90
2017-05-13T02:15:07.503Z,13.90
2017-05-13T02:17:37.286Z,13.90
2017-05-13T02:20:06.353Z,13.90
2017-05-13T02:22:35.402Z,14.10
2017-05-13T02:25:05.218Z,14.10
2017-05-13T02:27:35.031Z,14.20
2017-05-13T02:30:04.957Z,14.30
2017-05-13T02:32:34.002Z,14.30
2017-05-13T02:35:03.075Z,14.30
2017-05-13T02:37:32.124Z,14.20
2017-05-13T02:40:01.233Z,14.30
2017-05-13T02:42:31.018Z,14.30
2017-05-13T02:45:00.076Z,14.40
2017-05-13T02:47:29.125Z,14.40
2017-05-13T02:49:58.179Z,14.40
2017-05-13T02:52:27.352Z,14.30
2017-05-13T02:54:56.415Z,14.30
2017-05-13T02:57:25.475Z,14.30
2017-05-13T02:59:54.618Z,14.40
2017-05-13T03:02:24.406Z,14.40
2017-05-13T03:04:53.527Z,14.30
2017-05-13T03:07:23.311Z,14.30
2017-05-13T03:09:52.371Z,14.20
2017-05-13T03:12:21.419Z,14.20
2017-05-13T03:14:50.517Z,14.10
2017-05-13T03:17:20.329Z,14.20
2017-05-13T03:19:50.139Z,14.20
2017-05-13T03:22:19.175Z,14.20
2017-05-13T03:24:48.234Z,14.20
2017-05-13T03:27:17.430Z,14.20
2017-05-13T03:29:46.533Z,14.20
2017-05-13T03:32:16.353Z,14.20
2017-05-13T03:34:46.253Z,14.20
2017-05-13T03:37:16.083Z,14.20
2017-05-13T03:39:45.889Z,14.30
2017-05-13T03:42:15.711Z,14.30
2017-05-13T03:44:45.614Z,14.30
2017-05-13T03:47:15.437Z,14.40
2017-05-13T03:49:45.235Z,14.40
2017-05-13T03:52:15.049Z,14.40
2017-05-13T03:54:44.863Z,14.40
2017-05-13T03:57:14.645Z,14.50
2017-05-13T03:59:43.782Z,14.50
2017-05-13T04:02:13.626Z,14.50
2017-05-13T04:04:42.739Z,14.60
2017-05-13T04:07:12.019Z,14.60
2017-05-13T04:09:41.116Z,14.60
2017-05-13T04:12:10.263Z,14.60
2017-05-13T04:14:39.360Z,14.70
2017-05-13T04:17:08.448Z,14.70
2017-05-13T04:19:38.344Z,14.70
2017-05-13T04:22:08.150Z,14.70
2017-05-13T04:24:37.202Z,14.70
2017-05-13T04:27:06.347Z,14.70
2017-05-13T04:29:35.542Z,14.60
2017-05-13T04:32:04.582Z,14.60
2017-05-13T04:34:33.633Z,14.50
2017-05-13T04:37:03.445Z,14.50
2017-05-13T04:39:32.553Z,14.50
2017-05-13T04:42:02.355Z,14.50
2017-05-13T04:44:31.452Z,14.50
2017-05-13T04:47:00.498Z,14.60
2017-05-13T04:49:29.651Z,14.60
2017-05-13T04:51:59.465Z,14.70
2017-05-13T04:54:29.266Z,14.80
2017-05-13T04:56:58.374Z,14.70
2017-05-13T04:59:28.172Z,14.80
2017-05-13T05:01:57.359Z,14.90
2017-05-13T05:04:26.413Z,15.00
2017-05-13T05:06:55.492Z,14.90
2017-05-13T05:09:24.575Z,14.90
2017-05-13T05:11:54.378Z,14.90
2017-05-13T05:14:24.206Z,14.90
2017-05-13T05:16:53.990Z,14.90
2017-05-13T05:19:23.125Z,14.90
2017-05-13T05:21:52.177Z,14.90
2017-05-13T05:24:21.383Z,14.90
2017-05-13T05:26:50.441Z,14.80
2017-05-13T05:29:19.489Z,14.80
2017-05-13T05:31:49.304Z,14.70
2017-05-13T05:34:19.120Z,14.70
2017-05-13T05:36:49.039Z,14.80
2017-05-13T05:39:18.865Z,14.80
2017-05-13T05:41:47.931Z,14.70
2017-05-13T05:44:17.033Z,14.70
2017-05-13T05:46:46.834Z,14.70
2017-05-13T05:49:15.887Z,14.80
2017-05-13T05:51:45.056Z,14.80
2017-05-13T05:54:14.849Z,14.80
2017-05-13T05:56:44.645Z,14.80
2017-05-13T05:59:13.688Z,14.90
2017-05-13T06:01:42.756Z,14.90
2017-05-13T06:04:12.534Z,15.00
2017-05-13T06:06:41.657Z,15.10
2017-05-13T06:09:11.462Z,15.10
2017-05-13T06:11:40.586Z,15.10
2017-05-13T06:14:10.394Z,15.00
2017-05-13T06:16:40.201Z,15.10
2017-05-13T06:19:09.977Z,15.20
2017-05-13T06:21:39.142Z,15.30
2017-05-13T06:24:08.201Z,15.20
2017-05-13T06:26:38.016Z,15.30
2017-05-13T06:29:07.839Z,15.30
2017-05-13T06:31:36.921Z,15.40
2017-05-13T06:34:06.711Z,15.40
2017-05-13T06:36:35.779Z,15.40
2017-05-13T06:39:04.919Z,15.40
2017-05-13T06:41:34.053Z,15.40
2017-05-13T06:44:03.097Z,15.60
2017-05-13T06:46:32.245Z,15.70
2017-05-13T06:49:01.287Z,15.80
2017-05-13T06:51:30.407Z,16.00
2017-05-13T06:53:59.479Z,16.10
2017-05-13T06:56:28.605Z,16.20
2017-05-13T06:58:58.414Z,16.20
2017-05-13T07:01:28.217Z,16.30
2017-05-13T07:03:58.755Z,16.20
2017-05-13T07:06:28.210Z,16.10
2017-05-13T07:08:57.354Z,16.10
2017-05-13T07:11:27.171Z,16.10
2017-05-13T07:13:56.981Z,16.30
2017-05-13T07:16:26.799Z,16.30
2017-05-13T07:18:55.858Z,16.20
2017-05-13T07:21:24.921Z,16.30
2017-05-13T07:23:54.074Z,16.20
2017-05-13T07:26:23.145Z,16.50
2017-05-13T07:28:52.938Z,16.70
2017-05-13T07:31:22.071Z,16.80
2017-05-13T07:33:51.869Z,16.70
2017-05-13T07:36:21.677Z,16.80
2017-05-13T07:38:51.490Z,16.90
2017-05-13T07:41:20.536Z,16.90
2017-05-13T07:43:49.699Z,16.90
2017-05-13T07:46:18.747Z,16.80
2017-05-13T07:48:47.818Z,16.60
2017-05-13T07:51:17.605Z,16.50
2017-05-13T07:53:46.729Z,16.60
2017-05-13T07:56:16.521Z,16.50
2017-05-13T07:58:45.643Z,16.50
2017-05-13T08:01:15.458Z,16.50
2017-05-13T08:03:45.273Z,16.50
2017-05-13T08:06:15.084Z,16.50
2017-05-13T08:08:44.899Z,16.60
2017-05-13T08:11:14.803Z,16.60
2017-05-13T08:13:43.907Z,16.60
2017-05-13T08:16:13.718Z,16.60
2017-05-13T08:18:43.572Z,16.70
2017-05-13T08:21:13.329Z,16.70
2017-05-13T08:23:42.411Z,16.70
2017-05-13T08:26:11.553Z,16.60
2017-05-13T08:28:40.613Z,16.60
2017-05-13T08:31:09.666Z,16.60
2017-05-13T08:33:38.836Z,16.60
2017-05-13T08:36:07.881Z,16.80
2017-05-13T08:38:36.949Z,16.70
2017-05-13T08:41:06.005Z,16.60
2017-05-13T08:43:35.931Z,16.70
2017-05-13T08:46:05.747Z,16.60
2017-05-13T08:48:36.545Z,16.60
2017-05-13T08:51:05.585Z,16.70
2017-05-13T08:53:34.643Z,16.80
2017-05-13T08:56:03.693Z,16.80
2017-05-13T08:58:32.867Z,16.60
2017-05-13T09:01:02.649Z,16.50
2017-05-13T09:03:31.705Z,16.30
2017-05-13T09:06:00.862Z,16.30
2017-05-13T09:08:30.673Z,16.20
2017-05-13T09:11:00.462Z,16.10
2017-05-13T09:13:29.592Z,16.10
2017-05-13T09:15:59.374Z,15.90
2017-05-13T09:18:28.444Z,16.00
2017-05-13T09:20:57.593Z,15.90
2017-05-13T09:23:27.493Z,15.90
2017-05-13T09:25:57.322Z,15.80
2017-05-13T09:28:27.142Z,15.90
2017-05-13T09:30:56.193Z,15.90
2017-05-13T09:33:25.237Z,15.90
2017-05-13T09:35:54.317Z,16.00
2017-05-13T09:38:24.219Z,15.90
2017-05-13T09:40:53.321Z,16.10
2017-05-13T09:43:23.135Z,16.10
2017-05-13T09:45:52.950Z,16.20
2017-05-13T09:48:22.753Z,16.30
2017-05-13T09:50:52.557Z,16.30
2017-05-13T09:53:21.623Z,16.20
2017-05-13T09:55:50.773Z,16.40
2017-05-13T09:58:20.565Z,16.40
2017-05-13T10:00:49.625Z,16.30
2017-05-13T10:03:18.847Z,16.40
2017-05-13T10:05:47.969Z,16.60
2017-05-13T10:08:17.893Z,16.60
2017-05-13T10:10:47.689Z,16.80
2017-05-13T10:13:17.487Z,16.80
2017-05-13T10:15:47.323Z,16.90
2017-05-13T10:18:16.400Z,16.80
2017-05-13T10:20:45.494Z,16.90
2017-05-13T10:23:15.303Z,17.00
2017-05-13T10:25:45.118Z,17.00
2017-05-13T10:28:14.910Z,17.30
2017-05-13T10:30:43.973Z,17.60
2017-05-13T10:33:13.139Z,17.70
2017-05-13T10:35:42.231Z,17.80
2017-05-13T10:38:12.035Z,18.10
2017-05-13T10:40:41.841Z,18.10
2017-05-13T10:43:10.941Z,18.10
2017-05-13T10:45:40.753Z,18.10
2017-05-13T10:48:10.565Z,18.10
2017-05-13T10:50:40.397Z,18.10
2017-05-13T10:53:09.480Z,18.10
2017-05-13T10:55:39.273Z,18.10
2017-05-13T10:58:08.386Z,18.00
2017-05-13T11:00:38.181Z,17.90
2017-05-13T11:03:07.305Z,18.00
2017-05-13T11:05:37.219Z,18.00
2017-05-13T11:08:07.039Z,18.20
2017-05-13T11:10:36.130Z,18.10
2017-05-13T11:13:05.934Z,18.30
2017-05-13T11:15:35.736Z,18.40
2017-05-13T11:18:04.793Z,18.60
2017-05-13T11:20:33.837Z,18.50
2017-05-13T11:23:03.641Z,18.60
2017-05-13T11:25:33.439Z,18.70
2017-05-13T11:28:02.489Z,18.90
2017-05-13T11:30:31.535Z,18.90
2017-05-13T11:33:00.585Z,18.90
2017-05-13T11:35:29.751Z,19.00
2017-05-13T11:37:59.663Z,19.10
2017-05-13T11:40:29.480Z,19.10
2017-05-13T11:42:59.288Z,19.20
2017-05-13T11:45:29.095Z,19.30
2017-05-13T11:47:58.906Z,19.20
2017-05-13T11:50:28.690Z,19.10
2017-05-13T11:52:57.822Z,19.30
2017-05-13T11:55:27.626Z,19.30
2017-05-13T11:57:57.453Z,19.30
2017-05-13T12:00:27.249Z,19.20
2017-05-13T12:02:57.078Z,19.30
2017-05-13T12:05:26.896Z,19.40
2017-05-13T12:07:55.954Z,19.70
2017-05-13T12:10:24.994Z,19.90
2017-05-13T12:12:54.167Z,20.20
2017-05-13T12:15:23.950Z,20.90
2017-05-13T12:17:53.006Z,20.90
2017-05-13T12:20:22.085Z,21.50
2017-05-13T12:22:51.157Z,22.20
2017-05-13T12:25:20.991Z,22.80
2017-05-13T12:27:50.885Z,23.40
2017-05-13T12:30:20.673Z,23.40
2017-05-13T12:32:50.209Z,23.30
2017-05-13T12:35:20.037Z,23.20
2017-05-13T12:37:49.966Z,23.60
2017-05-13T12:40:19.038Z,23.60
2017-05-13T12:42:48.849Z,23.70
2017-05-13T12:45:18.761Z,24.10
2017-05-13T12:47:48.553Z,24.40
2017-05-13T12:50:17.665Z,24.50
2017-05-13T12:52:47.485Z,24.40
2017-05-13T12:55:17.293Z,24.30
2017-05-13T12:57:46.401Z,24.40
2017-05-13T13:00:16.301Z,23.70
2017-05-13T13:02:46.121Z,23.80
2017-05-13T13:05:15.929Z,24.00
2017-05-13T13:07:45.714Z,23.90
2017-05-13T13:10:14.778Z,23.70
2017-05-13T13:12:43.838Z,23.70
2017-05-13T13:15:13.762Z,23.70
2017-05-13T13:17:43.564Z,23.40
2017-05-13T13:20:13.384Z,23.60
2017-05-13T13:22:43.169Z,23.80
2017-05-13T13:25:12.302Z,23.60
2017-05-13T13:27:41.361Z,23.50
2017-05-13T13:30:10.434Z,23.30
2017-05-13T13:32:39.513Z,23.40
2017-05-13T13:35:08.572Z,23.70
2017-05-13T13:37:38.351Z,24.10
2017-05-13T13:40:07.420Z,24.80
2017-05-13T13:42:36.579Z,25.50
2017-05-13T13:45:06.377Z,25.90
2017-05-13T13:47:35.442Z,27.10
2017-05-13T13:50:04.581Z,28.20
2017-05-13T13:52:34.394Z,28.80
2017-05-13T13:55:04.240Z,28.30
2017-05-13T13:57:33.397Z,27.90
2017-05-13T14:00:03.210Z,28.40
2017-05-13T14:02:32.257Z,28.50
2017-05-13T14:05:01.316Z,29.00
2017-05-13T14:07:30.386Z,29.20
2017-05-13T14:09:59.449Z,28.20
2017-05-13T14:12:28.520Z,28.10
2017-05-13T14:14:57.586Z,27.20
2017-05-13T14:17:27.393Z,26.60
2017-05-13T14:19:57.197Z,25.80
2017-05-13T14:22:26.253Z,25.40
2017-05-13T14:24:55.301Z,25.00
2017-05-13T14:27:25.109Z,25.10
2017-05-13T14:29:54.922Z,24.40
2017-05-13T14:32:24.733Z,24.30
2017-05-13T14:34:54.549Z,24.00
2017-05-13T14:37:24.374Z,23.90
2017-05-13T14:39:54.154Z,23.40
2017-05-13T14:42:23.221Z,23.30
2017-05-13T14:44:52.364Z,23.30
2017-05-13T14:47:22.169Z,23.00
2017-05-13T14:49:51.278Z,22.90
2017-05-13T14:52:21.093Z,22.80
2017-05-13T14:54:50.897Z,22.80
2017-05-13T14:57:20.728Z,22.90
2017-05-13T14:59:49.911Z,22.70
2017-05-13T15:02:18.953Z,22.60
2017-05-13T15:04:48.111Z,22.50
2017-05-13T15:07:18.022Z,22.20
2017-05-13T15:09:47.862Z,22.00
2017-05-13T15:12:16.905Z,21.80
2017-05-13T15:14:46.033Z,21.60
2017-05-13T15:17:15.096Z,21.50
2017-05-13T15:19:44.231Z,21.40
2017-05-13T15:22:14.019Z,21.30
2017-05-13T15:24:43.818Z,21.10
2017-05-13T15:27:12.944Z,21.00
2017-05-13T15:29:42.745Z,20.80
2017-05-13T15:32:12.545Z,20.80
2017-05-13T15:34:41.653Z,20.70
2017-05-13T15:37:11.446Z,20.50
2017-05-13T15:39:40.505Z,20.40
2017-05-13T15:42:09.551Z,20.40
2017-05-13T15:44:38.657Z,20.40
2017-05-13T15:47:08.480Z,20.40
2017-05-13T15:49:37.560Z,20.50
2017-05-13T15:52:06.661Z,20.60
2017-05-13T15:54:36.482Z,20.70
2017-05-13T15:57:06.407Z,20.80
2017-05-13T15:59:35.495Z,20.90
2017-05-13T16:02:05.321Z,21.00
2017-05-13T16:04:34.395Z,20.90
2017-05-13T16:07:04.202Z,21.00
2017-05-13T16:09:34.132Z,20.90
2017-05-13T16:12:03.934Z,20.80
2017-05-13T16:14:33.842Z,20.90
2017-05-13T16:17:03.629Z,21.00
2017-05-13T16:19:32.825Z,21.00
2017-05-13T16:22:02.545Z,21.00
2017-05-13T16:24:31.661Z,21.00
2017-05-13T16:27:01.478Z,20.90
2017-05-13T16:29:31.297Z,20.90
2017-05-13T16:32:01.107Z,20.90
2017-05-13T16:34:30.903Z,20.90
2017-05-13T16:37:00.013Z,21.10
2017-05-13T16:39:29.812Z,21.00
2017-05-13T16:41:58.923Z,21.10
2017-05-13T16:44:28.719Z,21.20
2017-05-13T16:46:57.829Z,21.20
2017-05-13T16:49:27.655Z,21.20
2017-05-13T16:51:56.705Z,21.20
2017-05-13T16:54:25.829Z,21.30
2017-05-13T16:56:55.614Z,21.10
2017-05-13T16:59:24.675Z,21.10
2017-05-13T17:01:53.722Z,20.90
2017-05-13T17:04:22.804Z,20.90
2017-05-13T17:06:51.845Z,20.90
2017-05-13T17:09:21.733Z,20.80
2017-05-13T17:11:51.520Z,20.70
2017-05-13T17:14:20.640Z,20.70
2017-05-13T17:16:50.492Z,20.50
2017-05-13T17:19:19.553Z,20.50
2017-05-13T17:21:49.365Z,20.30
2017-05-13T17:24:19.183Z,20.30
2017-05-13T17:26:48.995Z,20.30
2017-05-13T17:29:18.812Z,20.20
2017-05-13T17:31:48.589Z,20.10
2017-05-13T17:34:17.672Z,20.10
2017-05-13T17:36:46.812Z,20.10
2017-05-13T17:39:16.625Z,20.10
2017-05-13T17:41:46.430Z,20.00
2017-05-13T17:44:15.477Z,20.00
2017-05-13T17:46:44.563Z,20.00
2017-05-13T17:49:13.599Z,20.10
2017-05-13T17:51:42.661Z,20.00
2017-05-13T17:54:11.755Z,20.10
2017-05-13T17:56:40.816Z,20.20
2017-05-13T17:59:10.627Z,20.10
2017-05-13T18:01:40.439Z,20.00
2017-05-13T18:04:10.221Z,20.00
2017-05-13T18:06:39.347Z,20.00
2017-05-13T18:09:09.139Z,19.90
2017-05-13T18:11:38.278Z,19.90
2017-05-13T18:14:07.326Z,19.80
2017-05-13T18:16:36.449Z,19.50
2017-05-13T18:19:06.238Z,19.40
2017-05-13T18:21:35.371Z,19.40
2017-05-13T18:24:04.446Z,19.30
2017-05-13T18:26:34.239Z,19.30
2017-05-13T18:29:03.365Z,19.30
2017-05-13T18:31:33.156Z,19.30
2017-05-13T18:34:02.323Z,19.40
2017-05-13T18:36:31.389Z,19.40
2017-05-13T18:39:00.476Z,19.40
2017-05-13T18:41:29.536Z,19.30
2017-05-13T18:43:58.645Z,19.30
2017-05-13T18:46:27.681Z,19.30
2017-05-13T18:48:56.847Z,19.30
2017-05-13T18:51:26.665Z,19.20
2017-05-13T18:53:56.583Z,19.20
2017-05-13T18:56:25.637Z,19.20
2017-05-13T18:58:54.705Z,19.10
2017-05-13T19:01:23.862Z,19.10
2017-05-13T19:03:53.679Z,19.10
2017-05-13T19:06:23.512Z,19.00
2017-05-13T19:08:52.594Z,19.00
2017-05-13T19:11:22.421Z,18.90
2017-05-13T19:13:51.602Z,18.90
2017-05-13T19:16:21.402Z,18.80
2017-05-13T19:18:51.315Z,18.70
2017-05-13T19:21:21.129Z,18.70
2017-05-13T19:23:51.469Z,18.60
2017-05-13T19:26:20.532Z,18.60
2017-05-13T19:28:50.445Z,18.50
2017-05-13T19:31:19.643Z,18.50
2017-05-13T19:33:49.600Z,18.40
2017-05-13T19:36:18.774Z,18.40
2017-05-13T19:38:47.813Z,18.30
2017-05-13T19:41:17.630Z,18.30
2017-05-13T19:43:46.778Z,18.20
2017-05-13T19:46:16.676Z,18.20
2017-05-13T19:48:46.289Z,18.20
2017-05-13T19:51:16.403Z,18.10
2017-05-13T19:53:45.519Z,18.10
2017-05-13T19:56:15.426Z,18.00
2017-05-13T19:58:44.585Z,18.00
2017-05-13T20:01:14.488Z,18.00
2017-05-13T20:03:44.308Z,17.90
2017-05-13T20:06:14.240Z,17.90
2017-05-13T20:08:43.288Z,17.90
2017-05-13T20:11:12.409Z,17.80
2017-05-13T20:13:42.241Z,17.80
2017-05-13T20:16:11.332Z,17.80
2017-05-13T20:18:40.409Z,17.70
2017-05-13T20:21:10.205Z,17.70
2017-05-13T20:23:39.253Z,17.70
2017-05-13T20:26:08.417Z,17.70
2017-05-13T20:28:38.297Z,17.60
2017-05-13T20:31:07.441Z,17.60
2017-05-13T20:33:36.497Z,17.70
2017-05-13T20:36:05.553Z,17.70
2017-05-13T20:38:34.588Z,17.70
2017-05-13T20:41:03.659Z,17.70
2017-05-13T20:43:32.817Z,17.70
2017-05-13T20:46:02.742Z,17.60
2017-05-13T20:48:31.795Z,17.60
2017-05-13T20:51:00.858Z,17.60
2017-05-13T20:53:30.021Z,17.60
2017-05-13T20:55:59.935Z,17.60
2017-05-13T20:58:29.717Z,17.60
2017-05-13T21:00:58.885Z,17.60
2017-05-13T21:03:28.054Z,17.60
2017-05-13T21:05:57.137Z,17.60
2017-05-13T21:08:26.238Z,17.60
2017-05-13T21:10:55.306Z,17.60
2017-05-13T21:13:24.409Z,17.60
2017-05-13T21:15:54.331Z,17.50
2017-05-13T21:18:24.181Z,17.50
2017-05-13T21:20:53.236Z,17.40
2017-05-13T21:23:23.027Z,17.30
2017-05-13T21:25:52.145Z,17.30
2017-05-13T21:28:21.959Z,17.20
2017-05-13T21:30:51.771Z,17.20
2017-05-13T21:33:21.590Z,17.10
2017-05-13T21:35:51.390Z,17.00
2017-05-13T21:38:21.208Z,17.00
2017-05-13T21:40:51.018Z,16.90
2017-05-13T21:43:20.161Z,17.00
2017-05-13T21:45:49.961Z,16.90
2017-05-13T21:48:19.005Z,16.90
2017-05-13T21:50:48.179Z,16.80
2017-05-13T21:53:17.217Z,16.80
2017-05-13T21:55:46.277Z,16.70
2017-05-13T21:58:15.345Z,16.70
2017-05-13T22:00:44.408Z,16.60
2017-05-13T22:03:13.449Z,16.60
2017-05-13T22:05:42.546Z,16.60
2017-05-13T22:08:12.350Z,16.60
2017-05-13T22:10:41.469Z,16.60
2017-05-13T22:13:10.517Z,16.60
2017-05-13T22:15:39.631Z,16.60
2017-05-13T22:18:08.768Z,16.60
2017-05-13T22:20:37.830Z,16.60
2017-05-13T22:23:06.917Z,16.60
2017-05-13T22:25:36.033Z,16.50
2017-05-13T22:28:05.824Z,16.40
2017-05-13T22:30:35.095Z,16.20
2017-05-13T22:33:04.901Z,16.30
2017-05-13T22:35:34.003Z,16.20
2017-05-13T22:38:04.062Z,16.20
2017-05-13T22:40:33.457Z,16.20
2017-05-13T22:43:02.592Z,16.20
2017-05-13T22:45:31.955Z,16.10
2017-05-13T22:48:01.073Z,16.10
2017-05-13T22:50:30.926Z,16.00
2017-05-13T22:53:00.023Z,16.00
2017-05-13T22:55:29.123Z,16.00
2017-05-13T22:57:58.206Z,16.00
2017-05-13T23:00:27.272Z,15.90
2017-05-13T23:02:57.191Z,15.80
2017-05-13T23:05:27.013Z,15.80
2017-05-13T23:07:56.070Z,15.80
2017-05-13T23:10:25.914Z,15.90
2017-05-13T23:12:54.977Z,16.00
2017-05-13T23:15:24.721Z,16.00
2017-05-13T23:17:54.106Z,16.00
2017-05-13T23:20:23.613Z,16.10
2017-05-13T23:22:53.578Z,16.00
2017-05-13T23:25:23.397Z,16.00
2017-05-13T23:27:52.570Z,16.00
2017-05-13T23:30:21.720Z,16.10
2017-05-13T23:32:50.870Z,16.10
2017-05-13T23:35:20.662Z,16.00
2017-05-13T23:37:49.716Z,16.00
2017-05-13T23:40:18.882Z,16.00
2017-05-13T23:42:48.664Z,15.90
2017-05-13T23:45:17.773Z,15.90
2017-05-13T23:47:46.883Z,15.90
2017-05-13T23:50:16.697Z,15.90
2017-05-13T23:52:46.514Z,15.90
2017-05-13T23:55:16.425Z,15.90
2017-05-13T23:57:46.243Z,16.00
